Time;durP1;ratioP1;P1;durP2;ratioP2;P2;SDS_P1;SDS_P2;PMS_P1;PMS_P2;Temp;Humidity;BMP_temperature;BMP_pressure;BME280_temperature;BME280_humidity;BME280_pressure;Samples;Min_cycle;Max_cycle;Signal;HPM_P1;HPM_P2
2023/07/11 00:02:06;;;;;;;2.50;2.30;;;19.10;99.90;;;;;;5035890;28;20301;-70
2023/07/11 00:04:34;;;;;;;2.67;2.20;;;19.00;99.90;;;;;;5035895;28;20540;-69
2023/07/11 00:07:00;;;;;;;3.13;2.33;;;19.00;99.90;;;;;;5035968;28;20264;-69
2023/07/11 00:09:25;;;;;;;3.53;2.57;;;18.90;99.90;;;;;;5036010;28;20794;-70
2023/07/11 00:11:51;;;;;;;1.67;1.57;;;18.90;99.90;;;;;;5035884;28;20196;-70
2023/07/11 00:14:17;;;;;;;2.43;1.90;;;18.90;99.90;;;;;;5035731;28;20218;-70
2023/07/11 00:16:42;;;;;;;1.70;1.70;;;19.00;99.90;;;;;;5035646;28;20176;-70
2023/07/11 00:19:10;;;;;;;1.20;1.10;;;19.10;99.90;;;;;;5035814;28;20174;-70
2023/07/11 00:21:36;;;;;;;3.10;2.90;;;19.10;99.90;;;;;;5035670;28;20330;-70
2023/07/11 00:24:03;;;;;;;2.67;2.47;;;19.10;99.90;;;;;;5035690;28;20486;-70
2023/07/11 00:26:30;;;;;;;2.53;2.00;;;19.00;99.90;;;;;;5035498;28;20414;-69
2023/07/11 00:29:01;;;;;;;1.63;1.17;;;19.00;99.90;;;;;;5035512;28;20754;-69
2023/07/11 00:31:27;;;;;;;1.73;1.63;;;19.00;99.90;;;;;;5035435;28;20436;-69
2023/07/11 00:33:53;;;;;;;2.17;2.07;;;18.90;99.90;;;;;;5035361;28;20423;-69
2023/07/11 00:36:18;;;;;;;2.53;2.43;;;18.90;99.90;;;;;;5035189;28;20504;-70
2023/07/11 00:38:44;;;;;;;3.80;2.33;;;18.80;99.90;;;;;;5035624;28;20259;-69
2023/07/11 00:41:09;;;;;;;4.97;3.50;;;18.80;99.90;;;;;;5035464;28;20195;-70
2023/07/11 00:43:35;;;;;;;5.90;1.97;;;18.80;99.90;;;;;;5035216;28;20205;-70
2023/07/11 00:46:04;;;;;;;7.37;3.80;;;18.70;99.90;;;;;;5035223;28;20268;-70
2023/07/11 00:48:33;;;;;;;2.50;2.30;;;18.80;99.90;;;;;;5035190;28;20175;-70
2023/07/11 00:50:59;;;;;;;1.50;1.40;;;18.90;99.90;;;;;;5034000;28;20413;-69
2023/07/11 00:53:28;;;;;;;2.50;2.30;;;18.70;99.90;;;;;;5035083;28;20409;-70
2023/07/11 00:55:57;;;;;;;2.37;2.20;;;18.60;99.90;;;;;;5034884;28;20867;-69
2023/07/11 00:58:24;;;;;;;2.73;1.90;;;18.70;99.90;;;;;;5035029;28;20495;-70
2023/07/11 01:00:50;;;;;;;2.83;2.63;;;19.00;99.90;;;;;;5034728;28;20436;-70
2023/07/11 01:03:16;;;;;;;2.40;2.20;;;18.80;99.90;;;;;;5034907;28;20495;-70
2023/07/11 01:05:42;;;;;;;2.77;2.30;;;18.70;99.90;;;;;;5034747;28;20961;-70
2023/07/11 01:08:08;;;;;;;3.43;2.10;;;18.80;99.90;;;;;;5034940;28;20266;-70
2023/07/11 01:10:34;;;;;;;1.37;1.27;;;18.80;99.90;;;;;;5035002;28;20178;-70
2023/07/11 01:13:02;;;;;;;2.63;2.43;;;18.70;99.90;;;;;;5034508;28;20429;-69
2023/07/11 01:15:29;;;;;;;3.87;2.60;;;18.70;99.90;;;;;;5034348;28;20210;-71
2023/07/11 01:17:54;;;;;;;2.07;1.87;;;18.60;99.90;;;;;;5034648;28;20406;-70
2023/07/11 01:20:22;;;;;;;2.63;2.43;;;18.60;99.90;;;;;;5034801;28;20181;-70
2023/07/11 01:22:51;;;;;;;1.63;1.37;;;18.60;99.90;;;;;;5034381;28;20189;-70
2023/07/11 01:25:17;;;;;;;3.30;3.10;;;18.60;99.90;;;;;;5034661;28;20418;-70
2023/07/11 01:27:45;;;;;;;3.30;2.53;;;18.60;99.90;;;;;;5034266;28;20411;-70
2023/07/11 01:30:14;;;;;;;2.57;2.37;;;18.50;99.90;;;;;;5034395;28;20409;-70
2023/07/11 01:32:40;;;;;;;2.40;2.20;;;18.60;99.90;;;;;;5034273;28;20544;-70
2023/07/11 01:35:06;;;;;;;2.47;2.37;;;18.50;99.90;;;;;;5034304;28;20557;-69
2023/07/11 01:37:32;;;;;;;2.63;2.43;;;18.50;99.90;;;;;;5034179;28;20181;-69
2023/07/11 01:39:58;;;;;;;10.30;3.27;;;18.50;99.90;;;;;;5034298;28;20892;-69
2023/07/11 01:42:25;;;;;;;1.47;1.37;;;18.60;99.90;;;;;;5034068;28;20197;-69
2023/07/11 01:44:51;;;;;;;3.47;3.20;;;18.70;99.90;;;;;;5034145;28;20414;-70
2023/07/11 01:47:17;;;;;;;2.40;2.23;;;18.70;99.90;;;;;;5033933;28;20417;-70
2023/07/11 01:49:42;;;;;;;3.47;3.27;;;18.60;99.90;;;;;;5034269;28;20410;-70
2023/07/11 01:52:21;;;;;;;2.73;2.53;;;18.50;99.90;;;;;;5033900;28;20214;-69
2023/07/11 01:54:48;;;;;;;4.20;2.47;;;18.60;99.90;;;;;;5034305;28;20685;-70
2023/07/11 01:57:14;;;;;;;3.10;2.73;;;18.50;99.90;;;;;;5033782;28;20402;-69
2023/07/11 01:59:40;;;;;;;2.57;2.37;;;18.50;99.90;;;;;;5033872;28;20403;-70
2023/07/11 02:02:07;;;;;;;4.57;1.97;;;18.50;99.90;;;;;;5033640;28;20816;-69
2023/07/11 02:04:34;;;;;;;4.30;3.90;;;18.40;99.90;;;;;;5033797;28;20420;-70
2023/07/11 02:07:00;;;;;;;1.83;1.73;;;18.50;99.90;;;;;;5033483;28;20468;-69
2023/07/11 02:09:26;;;;;;;2.70;1.67;;;18.50;99.90;;;;;;5033182;28;20492;-69
2023/07/11 02:11:52;;;;;;;2.70;2.30;;;18.60;99.90;;;;;;5032408;28;20432;-69
2023/07/11 02:14:20;;;;;;;3.20;2.90;;;18.60;99.90;;;;;;5032207;28;20458;-69
2023/07/11 02:16:47;;;;;;;1.70;1.57;;;18.60;99.90;;;;;;5032890;28;20180;-69
2023/07/11 02:19:14;;;;;;;4.50;3.43;;;18.50;99.90;;;;;;5033001;28;20431;-70
2023/07/11 02:21:40;;;;;;;3.57;3.37;;;18.50;99.90;;;;;;5032829;28;20480;-69
2023/07/11 02:24:08;;;;;;;2.50;1.80;;;18.40;99.90;;;;;;5032930;28;20435;-70
2023/07/11 02:26:34;;;;;;;3.40;2.87;;;18.40;99.90;;;;;;5033526;28;20785;-69
2023/07/11 02:29:00;;;;;;;2.60;2.50;;;18.40;99.90;;;;;;5033505;28;20415;-69
2023/07/11 02:31:26;;;;;;;4.10;2.20;;;18.30;99.90;;;;;;5015551;28;20198;-69
2023/07/11 02:33:53;;;;;;;2.43;2.30;;;18.30;99.90;;;;;;5033303;28;20547;-69
2023/07/11 02:36:19;;;;;;;2.10;2.00;;;18.30;99.90;;;;;;5033241;28;20170;-70
2023/07/11 02:38:44;;;;;;;2.60;2.40;;;18.30;99.90;;;;;;5033337;28;20398;-70
2023/07/11 02:41:10;;;;;;;3.00;2.23;;;18.30;99.90;;;;;;5033456;28;20426;-70
2023/07/11 02:43:36;;;;;;;2.40;2.20;;;18.40;99.90;;;;;;5033315;28;20197;-70
2023/07/11 02:46:01;;;;;;;1.63;1.53;;;18.40;99.90;;;;;;5033147;28;20178;-69
2023/07/11 02:48:28;;;;;;;5.30;4.10;;;18.30;99.90;;;;;;5033386;28;20179;-69
2023/07/11 02:50:54;;;;;;;3.87;3.57;;;18.10;99.90;;;;;;5033196;28;20205;-69
2023/07/11 02:53:20;;;;;;;4.53;4.13;;;18.30;99.90;;;;;;5033323;28;20830;-70
2023/07/11 02:55:45;;;;;;;2.77;2.57;;;18.40;99.90;;;;;;5032970;28;20210;-70
2023/07/11 02:58:11;;;;;;;2.13;2.03;;;18.30;99.90;;;;;;5033163;28;20825;-69
2023/07/11 03:00:37;;;;;;;1.40;1.30;;;18.30;99.90;;;;;;5033103;28;20191;-69
2023/07/11 03:03:03;;;;;;;1.90;1.80;;;18.40;99.90;;;;;;5033048;28;20566;-69
2023/07/11 03:05:29;;;;;;;3.03;2.80;;;18.40;99.90;;;;;;5033124;28;20185;-70
2023/07/11 03:07:55;;;;;;;2.90;2.70;;;18.50;99.90;;;;;;5015319;28;20422;-70
2023/07/11 03:10:20;;;;;;;1.80;1.47;;;18.40;99.90;;;;;;5033027;28;20178;-69
2023/07/11 03:12:46;;;;;;;2.30;2.10;;;18.40;99.90;;;;;;5032926;28;20440;-70
2023/07/11 03:15:12;;;;;;;1.53;1.43;;;18.50;99.90;;;;;;5036905;28;20201;-69
2023/07/11 03:17:37;;;;;;;3.00;2.80;;;18.50;99.90;;;;;;5036927;28;20185;-70
2023/07/11 03:20:03;;;;;;;3.27;3.00;;;18.40;99.90;;;;;;5036571;28;20538;-70
2023/07/11 03:22:29;;;;;;;1.70;1.60;;;18.40;99.90;;;;;;5036725;28;20209;-70
2023/07/11 03:24:55;;;;;;;2.90;2.70;;;18.30;99.90;;;;;;5037148;28;20437;-69
2023/07/11 03:27:20;;;;;;;2.73;2.53;;;18.30;99.90;;;;;;5036585;28;20418;-69
2023/07/11 03:29:46;;;;;;;1.80;1.70;;;18.30;99.90;;;;;;5036719;28;20273;-70
2023/07/11 03:32:12;;;;;;;1.97;1.80;;;18.30;99.90;;;;;;5036533;28;20278;-69
2023/07/11 03:34:38;;;;;;;2.57;2.47;;;18.40;99.90;;;;;;5036470;28;20211;-70
2023/07/11 03:37:03;;;;;;;2.33;2.13;;;18.50;99.90;;;;;;5036313;28;20174;-69
2023/07/11 03:39:29;;;;;;;3.13;2.83;;;18.50;99.90;;;;;;5036664;28;20861;-70
2023/07/11 03:41:55;;;;;;;3.30;2.77;;;18.20;99.90;;;;;;5035828;28;20197;-70
2023/07/11 03:44:21;;;;;;;2.33;2.13;;;18.40;99.90;;;;;;5036379;28;20175;-70
2023/07/11 03:46:46;;;;;;;2.60;2.40;;;18.40;99.90;;;;;;5036079;28;20169;-69
2023/07/11 03:49:12;;;;;;;3.27;3.07;;;18.50;99.90;;;;;;5036486;28;20540;-69
2023/07/11 03:51:37;;;;;;;3.27;2.63;;;18.60;99.90;;;;;;5036272;28;20199;-70
2023/07/11 03:54:03;;;;;;;1.30;1.30;;;18.60;99.90;;;;;;5036080;28;20606;-69
2023/07/11 03:56:29;;;;;;;3.40;3.17;;;18.70;99.90;;;;;;5018203;28;20176;-70
2023/07/11 03:58:55;;;;;;;1.70;1.57;;;18.70;99.90;;;;;;5036235;28;20456;-70
2023/07/11 04:01:21;;;;;;;2.70;2.53;;;18.70;99.90;;;;;;5035865;28;20202;-69
2023/07/11 04:03:47;;;;;;;3.13;2.93;;;18.80;99.90;;;;;;5036041;28;20413;-70
2023/07/11 04:06:13;;;;;;;2.00;1.90;;;18.70;99.90;;;;;;5035802;28;20587;-70
2023/07/11 04:08:39;;;;;;;1.77;1.67;;;18.70;99.90;;;;;;5035917;28;20167;-69
2023/07/11 04:11:05;;;;;;;2.60;2.40;;;18.30;99.90;;;;;;5035875;28;20976;-70
2023/07/11 04:13:31;;;;;;;3.30;3.03;;;18.60;99.90;;;;;;5035812;28;20405;-70
2023/07/11 04:15:56;;;;;;;2.57;2.43;;;18.60;99.90;;;;;;5035639;28;20202;-70
2023/07/11 04:18:23;;;;;;;5.53;5.03;;;18.60;99.90;;;;;;5035877;28;20458;-69
2023/07/11 04:20:48;;;;;;;1.80;1.70;;;18.70;99.90;;;;;;5035652;28;20201;-69
2023/07/11 04:23:14;;;;;;;2.47;1.93;;;18.80;99.90;;;;;;5035631;28;20408;-70
2023/07/11 04:25:40;;;;;;;2.47;2.33;;;18.90;99.90;;;;;;5035476;28;20200;-70
2023/07/11 04:28:06;;;;;;;3.37;3.07;;;19.00;99.90;;;;;;5035562;28;20906;-69
2023/07/11 04:30:32;;;;;;;2.17;1.90;;;19.10;99.90;;;;;;5035643;28;20265;-70
2023/07/11 04:32:58;;;;;;;1.77;1.50;;;19.20;99.90;;;;;;5035397;28;20526;-69
2023/07/11 04:35:24;;;;;;;2.77;2.57;;;19.20;99.90;;;;;;5035325;28;20475;-69
2023/07/11 04:37:49;;;;;;;2.43;2.33;;;19.20;99.90;;;;;;5035946;28;20424;-70
2023/07/11 04:40:15;;;;;;;3.20;1.67;;;19.30;99.90;;;;;;5035355;28;20406;-70
2023/07/11 04:42:41;;;;;;;3.13;2.83;;;19.50;99.90;;;;;;5035175;28;20207;-70
2023/07/11 04:45:10;;;;;;;3.27;3.17;;;19.80;99.90;;;;;;5035352;28;20968;-70
2023/07/11 04:47:36;;;;;;;2.10;2.00;;;20.10;99.90;;;;;;5035233;28;20183;-70
2023/07/11 04:50:03;;;;;;;2.90;2.70;;;20.30;99.90;;;;;;5035207;28;20427;-70
2023/07/11 04:52:29;;;;;;;1.67;1.57;;;20.50;99.90;;;;;;5033245;28;20195;-69
2023/07/11 04:54:54;;;;;;;2.57;2.37;;;20.70;99.90;;;;;;5034062;28;20564;-70
2023/07/11 04:57:21;;;;;;;2.90;2.70;;;20.80;99.90;;;;;;5033892;28;20231;-70
2023/07/11 04:59:46;;;;;;;2.10;2.00;;;20.90;99.90;;;;;;5034903;28;20227;-70
2023/07/11 05:02:12;;;;;;;2.50;2.37;;;20.90;99.90;;;;;;5017212;28;20454;-70
2023/07/11 05:04:41;;;;;;;3.60;3.40;;;20.90;99.90;;;;;;5034861;28;20176;-70
2023/07/11 05:07:07;;;;;;;4.40;3.50;;;21.10;99.90;;;;;;5034764;28;20181;-70
2023/07/11 05:09:32;;;;;;;3.23;3.03;;;21.20;99.90;;;;;;5034756;28;20508;-70
2023/07/11 05:12:00;;;;;;;2.10;2.00;;;21.50;99.90;;;;;;5034910;28;20201;-70
2023/07/11 05:14:27;;;;;;;2.10;1.93;;;21.80;99.90;;;;;;5034778;28;20876;-70
2023/07/11 05:16:52;;;;;;;2.90;2.67;;;22.00;99.90;;;;;;5034504;28;20474;-70
2023/07/11 05:19:19;;;;;;;5.30;2.63;;;22.10;99.90;;;;;;5034770;28;20409;-70
2023/07/11 05:21:44;;;;;;;2.13;1.93;;;22.20;99.90;;;;;;5034516;28;20195;-70
2023/07/11 05:24:10;;;;;;;1.53;1.30;;;22.50;99.90;;;;;;5034570;28;20417;-70
2023/07/11 05:26:36;;;;;;;2.30;1.80;;;22.80;99.90;;;;;;5034246;28;20215;-70
2023/07/11 05:29:04;;;;;;;3.63;2.00;;;23.00;99.90;;;;;;5034558;28;20182;-70
2023/07/11 05:31:30;;;;;;;2.00;1.90;;;23.20;99.90;;;;;;5034442;28;20531;-70
2023/07/11 05:33:55;;;;;;;3.80;2.23;;;23.30;99.90;;;;;;5034215;28;20409;-70
2023/07/11 05:38:51;;;;;;;2.03;1.93;;;23.40;99.90;;;;;;5034530;28;20175;-71
2023/07/11 05:41:17;;;;;;;4.80;1.97;;;23.50;99.90;;;;;;5034088;28;20426;-70
2023/07/11 05:43:43;;;;;;;2.20;1.83;;;23.50;99.90;;;;;;5034386;28;20198;-70
2023/07/11 05:46:09;;;;;;;2.47;2.20;;;23.50;99.90;;;;;;5034037;28;20413;-70
2023/07/11 05:48:35;;;;;;;1.83;1.70;;;23.50;99.90;;;;;;5034131;28;20267;-70
2023/07/11 05:51:05;;;;;;;2.07;1.80;;;23.70;99.90;;;;;;5034124;28;20795;-70
2023/07/11 05:53:30;;;;;;;2.53;2.33;;;23.90;99.90;;;;;;5034090;28;20699;-70
2023/07/11 05:55:57;;;;;;;2.80;2.33;;;24.10;99.90;;;;;;5033840;28;20526;-70
2023/07/11 05:58:23;;;;;;;2.03;1.90;;;24.20;99.90;;;;;;5033959;28;20203;-70
2023/07/11 06:00:52;;;;;;;2.77;2.10;;;24.70;99.90;;;;;;5033935;28;20795;-70
2023/07/11 06:03:18;;;;;;;1.80;1.70;;;24.60;99.90;;;;;;5034132;28;20467;-70
2023/07/11 06:05:44;;;;;;;2.37;2.10;;;24.90;99.90;;;;;;5033710;28;20383;-71
2023/07/11 06:08:12;;;;;;;2.23;2.07;;;25.00;99.90;;;;;;5034093;28;20436;-70
2023/07/11 06:10:38;;;;;;;1.93;1.23;;;25.20;99.90;;;;;;5034072;28;20182;-70
2023/07/11 06:13:04;;;;;;;2.63;2.00;;;25.50;99.30;;;;;;5033912;28;20438;-71
2023/07/11 06:15:30;;;;;;;1.13;1.13;;;25.80;99.10;;;;;;5033677;28;20533;-71
2023/07/11 06:17:57;;;;;;;2.07;1.87;;;26.10;98.40;;;;;;5033744;28;20406;-70
2023/07/11 06:20:23;;;;;;;13.63;2.00;;;26.70;98.00;;;;;;5033637;28;20175;-71
2023/07/11 06:22:48;;;;;;;1.40;1.30;;;27.50;97.30;;;;;;5033618;28;20913;-71
2023/07/11 06:25:14;;;;;;;1.57;1.47;;;28.30;95.60;;;;;;5033791;28;20417;-71
2023/07/11 06:27:40;;;;;;;1.63;1.53;;;28.80;93.50;;;;;;5033160;28;20221;-71
2023/07/11 06:30:06;;;;;;;2.30;2.10;;;29.00;92.20;;;;;;5034256;28;20186;-71
2023/07/11 06:32:32;;;;;;;1.90;1.80;;;29.20;92.40;;;;;;5033481;28;20252;-71
2023/07/11 06:34:57;;;;;;;2.13;1.93;;;29.60;92.70;;;;;;5033727;28;20452;-71
2023/07/11 06:37:23;;;;;;;2.27;2.03;;;30.00;91.80;;;;;;5033706;28;20189;-71
2023/07/11 06:39:48;;;;;;;2.53;2.20;;;30.30;91.40;;;;;;5033988;28;20178;-71
2023/07/11 06:42:15;;;;;;;2.27;1.77;;;30.90;90.40;;;;;;5033660;28;20278;-71
2023/07/11 06:44:41;;;;;;;1.90;1.80;;;31.80;88.70;;;;;;5034100;28;20182;-71
2023/07/11 06:47:07;;;;;;;3.07;1.80;;;32.50;85.20;;;;;;5033458;28;20413;-71
2023/07/11 06:49:33;;;;;;;2.10;1.67;;;33.60;80.70;;;;;;5036670;28;20413;-71
2023/07/11 06:51:59;;;;;;;1.53;1.33;;;34.20;78.40;;;;;;5037721;28;20194;-69
2023/07/11 06:54:25;;;;;;;2.57;1.73;;;34.10;76.00;;;;;;5037952;28;20637;-68
2023/07/11 06:56:52;;;;;;;2.50;2.10;;;33.70;77.50;;;;;;5036985;28;20175;-68
2023/07/11 06:59:21;;;;;;;2.13;1.97;;;33.70;79.30;;;;;;5037458;28;20409;-69
2023/07/11 07:01:47;;;;;;;1.60;1.50;;;33.80;78.20;;;;;;5037030;28;20499;-69
2023/07/11 07:04:16;;;;;;;2.30;2.10;;;34.00;78.20;;;;;;5037360;28;20491;-69
2023/07/11 07:06:43;;;;;;;2.47;2.27;;;34.50;77.60;;;;;;5037106;28;20422;-69
2023/07/11 07:09:09;;;;;;;4.40;1.43;;;35.00;75.40;;;;;;5037319;28;20425;-69
2023/07/11 07:11:36;;;;;;;2.30;2.03;;;35.40;74.70;;;;;;5037207;28;20436;-69
2023/07/11 07:14:06;;;;;;;4.73;2.10;;;35.50;72.40;;;;;;5036966;28;20416;-69
2023/07/11 07:16:34;;;;;;;1.87;1.70;;;35.30;71.00;;;;;;5036978;28;20815;-69
2023/07/11 07:19:01;;;;;;;2.00;1.80;;;35.00;72.30;;;;;;5037070;28;20410;-69
2023/07/11 07:21:26;;;;;;;2.13;2.03;;;34.70;69.10;;;;;;5037037;28;20429;-69
2023/07/11 07:23:52;;;;;;;3.30;1.50;;;34.50;71.80;;;;;;5037099;28;20402;-68
2023/07/11 07:26:18;;;;;;;2.53;2.33;;;34.30;72.80;;;;;;5036650;28;20232;-69
2023/07/11 07:28:43;;;;;;;1.97;1.80;;;34.20;73.20;;;;;;5036783;28;20266;-69
2023/07/11 07:31:09;;;;;;;1.87;1.77;;;33.30;84.40;;;;;;5036654;28;20210;-66
2023/07/11 07:33:35;;;;;;;2.00;1.80;;;33.20;71.70;;;;;;5035818;28;20206;-69
2023/07/11 07:36:06;;;;;;;2.17;1.97;;;32.70;74.30;;;;;;5035547;28;20639;-69
2023/07/11 07:38:33;;;;;;;2.97;2.67;;;32.40;72.20;;;;;;5037089;28;20471;-68
2023/07/11 07:41:01;;;;;;;4.20;2.30;;;32.30;73.60;;;;;;5036210;28;20402;-69
2023/07/11 07:43:28;;;;;;;1.83;1.70;;;32.10;71.90;;;;;;5036412;28;20410;-69
2023/07/11 07:45:55;;;;;;;1.33;1.23;;;32.60;71.30;;;;;;5018487;28;20432;-69
2023/07/11 07:48:21;;;;;;;1.97;1.77;;;33.00;70.10;;;;;;5036401;28;20414;-69
2023/07/11 07:50:47;;;;;;;2.90;1.63;;;33.50;69.20;;;;;;5036422;28;20436;-69
2023/07/11 07:53:14;;;;;;;1.93;1.70;;;34.00;66.80;;;;;;5036145;28;20243;-66
2023/07/11 07:55:40;;;;;;;2.00;1.90;;;34.80;66.20;;;;;;5035624;28;20467;-66
2023/07/11 07:58:06;;;;;;;2.07;1.87;;;36.10;60.90;;;;;;5035029;28;20409;-69
2023/07/11 08:00:32;;;;;;;9.30;2.43;;;37.20;59.70;;;;;;5035747;28;20622;-69
2023/07/11 08:02:58;;;;;;;2.30;2.00;;;38.30;56.00;;;;;;5036535;28;20461;-68
2023/07/11 08:05:24;;;;;;;1.90;1.80;;;39.10;54.70;;;;;;5036438;28;20670;-69
2023/07/11 08:07:50;;;;;;;1.50;1.40;;;40.10;52.70;;;;;;5036050;28;20861;-69
2023/07/11 08:10:16;;;;;;;2.23;1.50;;;40.50;48.90;;;;;;5036443;28;20505;-68
2023/07/11 08:12:42;;;;;;;2.77;2.07;;;40.20;49.20;;;;;;5036156;28;20190;-68
2023/07/11 08:15:10;;;;;;;1.63;1.53;;;40.10;48.90;;;;;;5036123;28;20667;-69
2023/07/11 08:17:35;;;;;;;2.40;1.70;;;39.70;48.80;;;;;;5035959;28;20449;-69
2023/07/11 08:20:01;;;;;;;1.70;1.60;;;39.80;49.10;;;;;;5036003;28;20460;-69
2023/07/11 08:22:27;;;;;;;4.13;2.20;;;39.70;49.00;;;;;;5018140;28;20573;-69
2023/07/11 08:24:53;;;;;;;1.90;1.80;;;39.80;48.50;;;;;;5035902;28;20418;-69
2023/07/11 08:27:18;;;;;;;1.50;1.40;;;40.60;46.70;;;;;;5035732;28;20175;-69
2023/07/11 08:29:45;;;;;;;2.00;1.80;;;40.80;46.40;;;;;;5035313;28;20201;-69
2023/07/11 08:32:14;;;;;;;2.63;1.90;;;41.00;47.10;;;;;;5035569;28;20281;-69
2023/07/11 08:34:41;;;;;;;1.43;1.33;;;41.30;45.00;;;;;;5035274;28;20456;-69
2023/07/11 08:37:09;;;;;;;1.70;1.60;;;42.10;44.80;;;;;;5035258;28;20889;-69
2023/07/11 08:39:35;;;;;;;4.63;1.80;;;42.50;44.90;;;;;;5035394;28;20877;-69
2023/07/11 08:42:06;;;;;;;2.33;1.87;;;42.90;42.10;;;;;;5035471;28;20425;-69
2023/07/11 08:44:51;;;;;;;1.90;1.77;;;42.50;42.30;;;;;;5035350;28;20449;-70
2023/07/11 08:47:25;;;;;;;4.40;1.70;;;42.10;41.50;;;;;;5035114;28;20412;-69
2023/07/11 08:49:54;;;;;;;1.73;1.63;;;41.70;43.60;;;;;;5035659;28;20792;-69
2023/07/11 08:52:21;;;;;;;1.80;1.70;;;41.70;42.30;;;;;;5035108;28;20504;-69
2023/07/11 08:55:08;;;;;;;1.63;1.50;;;41.30;41.80;;;;;;5035330;28;20885;-69
2023/07/11 08:57:38;;;;;;;2.20;2.00;;;41.20;42.50;;;;;;5034933;28;20424;-69
2023/07/11 09:00:12;;;;;;;2.63;1.50;;;41.20;42.80;;;;;;5035301;28;20416;-70
2023/07/11 09:03:24;;;;;;;2.30;1.63;;;41.00;42.20;;;;;;5034857;28;20429;-69
2023/07/11 09:06:07;;;;;;;1.93;1.73;;;40.40;42.30;;;;;;5034610;28;20548;-69
2023/07/11 09:08:43;;;;;;;1.90;1.80;;;39.70;43.70;;;;;;5017073;28;20520;-69
2023/07/11 09:11:20;;;;;;;1.83;1.70;;;39.90;50.10;;;;;;5034018;28;20406;-70
2023/07/11 09:14:16;;;;;;;1.63;1.53;;;40.00;42.90;;;;;;5035117;28;20881;-69
2023/07/11 09:16:52;;;;;;;2.87;2.07;;;39.60;44.10;;;;;;5034652;28;20455;-68
2023/07/11 09:19:42;;;;;;;2.03;1.83;;;39.20;44.00;;;;;;5034678;28;20416;-68
2023/07/11 09:22:20;;;;;;;1.60;1.50;;;39.20;43.10;;;;;;5034875;28;20426;-67
2023/07/11 09:25:10;;;;;;;1.70;1.60;;;38.60;43.80;;;;;;5034571;28;20441;-68
2023/07/11 09:27:39;;;;;;;2.80;1.87;;;38.50;44.30;;;;;;5034267;28;20420;-68
2023/07/11 09:30:34;;;;;;;2.20;1.40;;;38.50;43.90;;;;;;5034633;28;20398;-69
2023/07/11 09:33:34;;;;;;;1.50;1.40;;;38.40;45.30;;;;;;5003783;28;20437;-69
2023/07/11 09:36:01;;;;;;;1.60;1.50;;;38.40;44.20;;;;;;5031992;28;20664;-69
2023/07/11 09:38:47;;;;;;;1.93;1.83;;;38.70;44.80;;;;;;5032096;28;20412;-69
2023/07/11 09:41:20;;;;;;;1.83;1.67;;;38.50;44.00;;;;;;5032115;28;20465;-69
2023/07/11 09:43:47;;;;;;;2.43;2.23;;;37.60;45.30;;;;;;5032079;28;20414;-69
2023/07/11 09:46:20;;;;;;;1.83;1.73;;;37.50;47.30;;;;;;5031766;28;20457;-69
2023/07/11 09:48:50;;;;;;;2.63;1.40;;;38.00;45.40;;;;;;5032750;28;20467;-69
2023/07/11 09:51:41;;;;;;;1.93;1.50;;;38.10;45.60;;;;;;5034192;28;20428;-69
2023/07/11 09:54:41;;;;;;;1.83;1.70;;;37.60;44.70;;;;;;5034038;28;20402;-69
2023/07/11 09:57:11;;;;;;;1.83;1.73;;;37.40;46.40;;;;;;5033586;28;20455;-69
2023/07/11 09:59:36;;;;;;;1.90;1.80;;;37.70;46.10;;;;;;5034083;28;20401;-69
2023/07/11 10:02:03;;;;;;;1.70;1.60;;;38.00;46.60;;;;;;5033745;28;20445;-69
2023/07/11 10:04:29;;;;;;;1.93;1.83;;;38.00;46.30;;;;;;5033777;28;20198;-69
2023/07/11 10:07:00;;;;;;;1.53;1.43;;;37.80;45.20;;;;;;5033683;28;20777;-69
2023/07/11 10:09:36;;;;;;;1.83;1.73;;;37.80;47.50;;;;;;5034029;28;20619;-69
2023/07/11 10:12:13;;;;;;;1.63;1.53;;;37.60;46.40;;;;;;5033782;28;20925;-69
2023/07/11 10:14:43;;;;;;;2.10;1.90;;;37.60;46.70;;;;;;5033845;28;20748;-69
2023/07/11 10:17:31;;;;;;;1.73;1.50;;;38.20;45.70;;;;;;5033413;28;20432;-69
2023/07/11 10:19:59;;;;;;;2.37;1.73;;;38.60;43.90;;;;;;5033497;28;20961;-69
2023/07/11 10:22:27;;;;;;;2.20;1.67;;;38.40;45.50;;;;;;5033077;28;20441;-69
2023/07/11 10:25:15;;;;;;;2.40;1.50;;;37.90;46.20;;;;;;5033355;28;20471;-69
2023/07/11 10:27:42;;;;;;;2.57;2.00;;;37.70;52.00;;;;;;5033352;28;20952;-68
2023/07/11 10:30:20;;;;;;;1.43;1.33;;;37.80;46.00;;;;;;5033505;28;20402;-69
2023/07/11 10:32:56;;;;;;;2.53;1.57;;;37.60;46.50;;;;;;5033423;28;20432;-69
2023/07/11 10:35:23;;;;;;;2.27;2.17;;;37.40;45.90;;;;;;5033375;28;20413;-69
2023/07/11 10:37:55;;;;;;;1.73;1.63;;;37.50;49.10;;;;;;5033550;28;20405;-69
2023/07/11 10:40:51;;;;;;;1.97;1.87;;;37.50;47.80;;;;;;5033450;28;20409;-69
2023/07/11 10:43:33;;;;;;;2.60;2.40;;;37.20;47.10;;;;;;5017092;28;20421;-69
2023/07/11 10:46:05;;;;;;;2.17;1.83;;;37.10;48.20;;;;;;5033297;28;20818;-69
2023/07/11 10:48:34;;;;;;;2.03;1.80;;;36.90;48.00;;;;;;5033544;28;20398;-69
2023/07/11 10:51:18;;;;;;;2.60;2.40;;;36.40;49.10;;;;;;5033254;28;20432;-68
2023/07/11 10:53:59;;;;;;;2.57;1.87;;;36.30;50.60;;;;;;5033316;28;20390;-69
2023/07/11 10:56:31;;;;;;;1.90;1.40;;;35.90;49.30;;;;;;5033132;28;20405;-69
2023/07/11 10:58:58;;;;;;;2.10;1.13;;;35.70;52.20;;;;;;5033780;28;20539;-69
2023/07/11 11:01:57;;;;;;;2.53;2.43;;;35.60;53.00;;;;;;5033032;28;20554;-68
2023/07/11 11:05:02;;;;;;;4.37;2.77;;;35.10;52.30;;;;;;5033156;28;20453;-69
2023/07/11 11:07:43;;;;;;;2.90;2.00;;;34.20;54.10;;;;;;5032857;28;20417;-69
2023/07/11 11:10:33;;;;;;;1.97;1.87;;;34.00;55.50;;;;;;5033394;28;20423;-69
2023/07/11 11:13:37;;;;;;;3.10;1.67;;;34.10;56.30;;;;;;5033222;28;20439;-69
2023/07/11 11:16:29;;;;;;;2.67;1.93;;;34.20;54.60;;;;;;5028700;28;20524;-69
2023/07/11 11:19:15;;;;;;;1.87;1.77;;;33.70;53.20;;;;;;5033225;28;20480;-68
2023/07/11 11:21:59;;;;;;;1.50;1.40;;;33.40;56.90;;;;;;4992391;28;20452;-69
2023/07/11 11:24:43;;;;;;;1.97;1.73;;;33.60;56.40;;;;;;5033019;28;20563;-69
2023/07/11 11:27:33;;;;;;;3.27;2.57;;;33.30;54.80;;;;;;5032795;28;20421;-68
2023/07/11 11:30:14;;;;;;;2.60;1.80;;;33.00;56.40;;;;;;5033079;28;20480;-69
2023/07/11 11:32:46;;;;;;;2.00;1.90;;;33.00;57.40;;;;;;5033089;28;20421;-68
2023/07/11 11:35:47;;;;;;;2.27;2.17;;;33.10;58.70;;;;;;5035203;28;20400;-68
2023/07/11 11:38:32;;;;;;;3.93;2.80;;;33.20;57.60;;;;;;4999403;28;20634;-68
2023/07/11 11:41:08;;;;;;;2.23;2.03;;;32.70;60.40;;;;;;5036769;28;20809;-68
2023/07/11 11:43:35;;;;;;;2.87;2.40;;;32.70;56.90;;;;;;5036687;28;20397;-68
2023/07/11 11:46:04;;;;;;;1.67;1.50;;;32.70;58.90;;;;;;5036252;28;20551;-69
2023/07/11 11:48:31;;;;;;;4.40;2.20;;;32.70;56.10;;;;;;5036651;28;20405;-69
2023/07/11 11:50:58;;;;;;;2.97;2.10;;;32.70;63.20;;;;;;5036496;28;20820;-68
2023/07/11 11:53:32;;;;;;;2.40;2.30;;;32.80;58.00;;;;;;5036827;28;20765;-68
2023/07/11 11:56:01;;;;;;;2.17;2.07;;;32.80;58.70;;;;;;5036340;28;20421;-68
2023/07/11 11:58:29;;;;;;;4.10;2.10;;;32.90;58.70;;;;;;5036314;28;20406;-69
2023/07/11 12:00:55;;;;;;;2.33;2.13;;;32.90;62.90;;;;;;5018387;28;20953;-69
2023/07/11 12:03:33;;;;;;;1.77;1.67;;;32.90;58.90;;;;;;5036368;28;20468;-68
2023/07/11 12:06:03;;;;;;;3.43;2.00;;;33.00;55.80;;;;;;5018107;28;20461;-69
2023/07/11 12:08:38;;;;;;;2.20;2.00;;;33.10;56.40;;;;;;5036120;28;20408;-68
2023/07/11 12:11:09;;;;;;;1.80;1.70;;;32.80;63.60;;;;;;5035886;28;20401;-69
2023/07/11 12:13:42;;;;;;;3.57;2.90;;;32.90;54.10;;;;;;5036068;28;20406;-69
2023/07/11 12:16:32;;;;;;;2.73;2.33;;;32.50;56.00;;;;;;5035826;28;20398;-69
2023/07/11 12:19:02;;;;;;;3.03;2.80;;;32.30;55.70;;;;;;5036098;28;20850;-69
2023/07/11 12:21:41;;;;;;;2.40;2.00;;;32.00;56.30;;;;;;5035659;28;20425;-69
2023/07/11 12:24:38;;;;;;;2.00;1.83;;;32.00;58.30;;;;;;5035595;28;20390;-68
2023/07/11 12:27:09;;;;;;;2.30;2.10;;;31.90;57.10;;;;;;5035632;28;20901;-71
2023/07/11 12:29:50;;;;;;;3.40;2.40;;;32.00;56.50;;;;;;5035585;28;20445;-71
2023/07/11 12:32:29;;;;;;;3.13;2.60;;;31.90;59.20;;;;;;5035556;28;20471;-71
2023/07/11 12:34:56;;;;;;;3.67;1.90;;;31.80;57.00;;;;;;5035253;28;20916;-71
2023/07/11 12:37:26;;;;;;;2.70;2.13;;;31.60;57.40;;;;;;5035348;28;20768;-71
2023/07/11 12:40:14;;;;;;;3.10;2.40;;;31.70;57.10;;;;;;5035506;28;20983;-71
2023/07/11 12:42:43;;;;;;;2.33;2.20;;;31.70;57.80;;;;;;5035333;28;20457;-71
2023/07/11 12:45:17;;;;;;;2.90;2.60;;;31.70;56.80;;;;;;5035364;28;20449;-71
2023/07/11 12:47:46;;;;;;;2.97;1.90;;;31.70;56.90;;;;;;5035185;28;20757;-71
2023/07/11 12:50:32;;;;;;;2.10;2.00;;;31.60;56.10;;;;;;5035338;28;20486;-71
2023/07/11 12:53:03;;;;;;;1.73;1.63;;;31.60;56.60;;;;;;5035147;28;20426;-71
2023/07/11 12:55:29;;;;;;;3.73;2.27;;;31.50;57.00;;;;;;5035102;28;20405;-71
2023/07/11 12:57:56;;;;;;;2.13;2.00;;;31.30;56.70;;;;;;5017266;28;20472;-71
2023/07/11 13:00:25;;;;;;;2.37;2.23;;;31.30;56.60;;;;;;5034876;28;20429;-71
2023/07/11 13:02:54;;;;;;;2.27;2.07;;;31.30;59.20;;;;;;5034961;28;20452;-71
2023/07/11 13:05:22;;;;;;;2.97;2.77;;;31.40;56.90;;;;;;5034970;28;20445;-71